Time;durP1;ratioP1;P1;durP2;ratioP2;P2;SDS_P1;SDS_P2;PMS_P1;PMS_P2;Temp;Humidity;BMP_temperature;BMP_pressure;BME280_temperature;BME280_humidity;BME280_pressure;Samples;Min_cycle;Max_cycle;Signal;HPM_P1;HPM_P2
2021/05/07 00:00:58;;;;;;;1.10;0.60;;;9.20;1.00;;;;;;5025042;28;20022;-73
2021/05/07 00:03:24;;;;;;;0.50;0.50;;;9.30;1.00;;;;;;5034207;28;20030;-74
2021/05/07 00:05:56;;;;;;;0.50;0.50;;;9.30;1.00;;;;;;5035384;28;20036;-73
2021/05/07 00:08:25;;;;;;;0.40;0.40;;;9.30;1.00;;;;;;5032931;28;20176;-74
2021/05/07 00:10:50;;;;;;;0.98;0.50;;;9.20;1.00;;;;;;5028769;28;20022;-75
2021/05/07 00:13:16;;;;;;;0.60;0.60;;;9.20;1.00;;;;;;5034365;28;20390;-74
2021/05/07 00:15:42;;;;;;;0.68;0.68;;;9.20;1.00;;;;;;5032746;28;20033;-74
2021/05/07 00:18:08;;;;;;;0.40;0.40;;;9.20;1.00;;;;;;5027901;28;20029;-73
2021/05/07 00:20:33;;;;;;;0.40;0.40;;;9.30;1.00;;;;;;5033066;28;20025;-74
2021/05/07 00:22:59;;;;;;;0.55;0.55;;;9.30;1.00;;;;;;5037012;28;20473;-74
2021/05/07 00:25:25;;;;;;;1.58;0.40;;;9.20;1.00;;;;;;5027271;28;20071;-73
2021/05/07 00:28:07;;;;;;;2.58;0.40;;;9.20;1.00;;;;;;5034122;28;20076;-74
2021/05/07 00:30:36;;;;;;;0.50;0.50;;;9.20;1.00;;;;;;5026047;28;20030;-73
2021/05/07 00:33:02;;;;;;;1.90;0.40;;;9.20;1.00;;;;;;5034714;28;20167;-74
2021/05/07 00:35:28;;;;;;;0.30;0.30;;;9.20;1.00;;;;;;5034417;28;20026;-73
2021/05/07 00:37:54;;;;;;;0.52;0.52;;;9.20;1.00;;;;;;5030254;28;20026;-74
2021/05/07 00:40:20;;;;;;;0.30;0.30;;;9.10;1.00;;;;;;5031846;28;20036;-73
2021/05/07 00:42:46;;;;;;;0.38;0.38;;;9.10;1.00;;;;;;5035414;28;20022;-73
2021/05/07 00:45:14;;;;;;;0.68;0.40;;;9.10;1.00;;;;;;5020814;28;20101;-73
2021/05/07 00:47:43;;;;;;;1.35;0.45;;;9.00;1.00;;;;;;5031794;28;20235;-75
2021/05/07 00:50:10;;;;;;;0.50;0.50;;;9.10;1.00;;;;;;5034723;28;20090;-74
2021/05/07 00:52:37;;;;;;;0.43;0.43;;;9.00;1.00;;;;;;5044804;28;20034;-74
2021/05/07 00:55:07;;;;;;;0.43;0.35;;;9.00;1.00;;;;;;5043663;28;20063;-73
2021/05/07 00:57:34;;;;;;;0.43;0.43;;;8.90;1.00;;;;;;5051349;28;20085;-73
2021/05/07 01:00:00;;;;;;;0.30;0.30;;;8.90;1.00;;;;;;5026077;28;20026;-75
2021/05/07 01:02:26;;;;;;;0.52;0.40;;;8.90;1.00;;;;;;5025946;28;20147;-73
2021/05/07 01:04:52;;;;;;;0.40;0.40;;;9.00;1.00;;;;;;5031722;28;20061;-74
2021/05/07 01:07:18;;;;;;;0.75;0.40;;;9.00;1.00;;;;;;5031168;28;20507;-74
2021/05/07 01:09:44;;;;;;;0.30;0.30;;;8.90;99.90;;;;;;5035658;28;20025;-74
2021/05/07 01:12:10;;;;;;;0.60;0.50;;;8.80;99.90;;;;;;5035964;28;20390;-73
2021/05/07 01:14:36;;;;;;;0.98;0.45;;;8.80;99.90;;;;;;5035551;28;20101;-73
2021/05/07 01:17:03;;;;;;;0.77;0.55;;;8.80;99.90;;;;;;5026110;28;20064;-73
2021/05/07 01:19:29;;;;;;;0.47;0.47;;;8.80;99.90;;;;;;5036597;28;20052;-73
2021/05/07 01:21:56;;;;;;;0.50;0.50;;;8.80;99.90;;;;;;5040961;28;20057;-73
2021/05/07 01:24:25;;;;;;;0.38;0.35;;;8.70;99.90;;;;;;5050226;28;20032;-73
2021/05/07 01:26:52;;;;;;;0.77;0.52;;;8.60;99.90;;;;;;5033456;28;20018;-73
2021/05/07 01:29:17;;;;;;;0.40;0.40;;;8.60;99.90;;;;;;5026623;28;20010;-74
2021/05/07 01:31:45;;;;;;;0.35;0.35;;;8.60;99.90;;;;;;5033654;28;20013;-74
2021/05/07 01:34:11;;;;;;;0.43;0.43;;;8.50;1.00;;;;;;5033756;28;20131;-74
2021/05/07 01:36:37;;;;;;;0.55;0.40;;;8.50;1.00;;;;;;5033622;28;20128;-74
2021/05/07 01:39:03;;;;;;;0.60;0.60;;;8.40;1.00;;;;;;5028310;28;20030;-74
2021/05/07 01:41:28;;;;;;;2.53;0.75;;;8.40;1.00;;;;;;5031174;28;20033;-73
2021/05/07 01:43:54;;;;;;;0.60;0.50;;;8.30;1.00;;;;;;5033859;28;20393;-73
2021/05/07 01:46:19;;;;;;;0.45;0.45;;;8.30;1.00;;;;;;5024697;28;20180;-74
2021/05/07 01:48:45;;;;;;;0.52;0.47;;;8.20;1.00;;;;;;5031400;28;20527;-73
2021/05/07 01:51:10;;;;;;;0.50;0.47;;;8.20;1.00;;;;;;5020494;28;20535;-74
2021/05/07 01:53:36;;;;;;;0.65;0.65;;;8.10;1.00;;;;;;5033753;28;20025;-72
2021/05/07 01:56:02;;;;;;;0.57;0.45;;;8.10;1.00;;;;;;5034262;28;20033;-73
2021/05/07 01:58:28;;;;;;;0.63;0.50;;;8.00;1.00;;;;;;5032836;28;20521;-74
2021/05/07 02:00:54;;;;;;;0.50;0.45;;;8.00;1.00;;;;;;5026555;28;20052;-73
2021/05/07 02:03:19;;;;;;;0.45;0.45;;;7.90;1.00;;;;;;5030786;28;20029;-74
2021/05/07 02:05:45;;;;;;;0.50;0.50;;;7.90;1.00;;;;;;5026051;28;20037;-75
2021/05/07 02:08:11;;;;;;;0.50;0.50;;;7.80;1.00;;;;;;5032373;28;20022;-74
2021/05/07 02:10:40;;;;;;;0.50;0.50;;;7.80;1.00;;;;;;5023522;28;20018;-74
2021/05/07 02:13:07;;;;;;;0.95;0.70;;;7.70;1.00;;;;;;5025306;28;20028;-73
2021/05/07 02:15:34;;;;;;;0.50;0.50;;;7.80;1.00;;;;;;5031585;28;20079;-73
2021/05/07 02:18:01;;;;;;;0.45;0.45;;;7.70;1.00;;;;;;5026424;28;20021;-73
2021/05/07 02:20:28;;;;;;;0.60;0.60;;;7.70;1.00;;;;;;5032887;28;20029;-74
2021/05/07 02:22:54;;;;;;;2.05;0.80;;;7.70;1.00;;;;;;5025713;28;20045;-74
2021/05/07 02:25:22;;;;;;;0.60;0.60;;;7.70;1.00;;;;;;5038311;28;20048;-73
2021/05/07 02:27:52;;;;;;;0.47;0.47;;;7.70;1.00;;;;;;5040821;28;20242;-74
2021/05/07 02:30:21;;;;;;;1.70;0.70;;;7.70;1.00;;;;;;5033391;28;20421;-74
2021/05/07 02:32:46;;;;;;;0.90;0.90;;;7.70;1.00;;;;;;5027162;28;20476;-73
2021/05/07 02:35:13;;;;;;;0.82;0.60;;;7.70;1.00;;;;;;5035960;28;20075;-73
2021/05/07 02:37:39;;;;;;;1.45;0.70;;;7.70;1.00;;;;;;5048759;28;20037;-75
2021/05/07 02:40:06;;;;;;;1.40;0.82;;;7.70;1.00;;;;;;5029459;28;20381;-73
2021/05/07 02:42:32;;;;;;;1.10;0.70;;;7.80;1.00;;;;;;5032636;28;20026;-73
2021/05/07 02:44:58;;;;;;;0.60;0.60;;;7.80;1.00;;;;;;5028388;28;20014;-73
2021/05/07 02:47:23;;;;;;;0.57;0.57;;;7.80;1.00;;;;;;5014962;28;20022;-73
2021/05/07 02:49:49;;;;;;;0.90;0.50;;;7.80;1.00;;;;;;5027552;28;20061;-73
2021/05/07 02:52:15;;;;;;;0.63;0.60;;;7.80;1.00;;;;;;5043333;28;20022;-73
2021/05/07 02:54:40;;;;;;;2.70;1.20;;;7.90;1.00;;;;;;5040115;28;20033;-73
2021/05/07 02:57:07;;;;;;;1.92;1.13;;;7.90;1.00;;;;;;5038130;28;20025;-73
2021/05/07 02:59:32;;;;;;;1.23;0.95;;;7.90;1.00;;;;;;5033254;28;20037;-73
2021/05/07 03:01:58;;;;;;;0.98;0.98;;;7.90;1.00;;;;;;5033937;28;20393;-73
2021/05/07 03:04:23;;;;;;;1.15;0.90;;;7.90;1.00;;;;;;5025013;28;20026;-73
2021/05/07 03:06:50;;;;;;;2.28;1.00;;;8.00;1.00;;;;;;5033089;28;20026;-73
2021/05/07 03:09:16;;;;;;;0.60;0.60;;;7.90;1.00;;;;;;5029722;28;20494;-74
2021/05/07 03:11:43;;;;;;;0.77;0.70;;;7.90;1.00;;;;;;5013781;28;20033;-74
2021/05/07 03:14:09;;;;;;;3.05;0.80;;;7.90;1.00;;;;;;5029748;28;20040;-74
2021/05/07 03:16:34;;;;;;;0.80;0.80;;;7.90;1.00;;;;;;5025566;28;20045;-74
2021/05/07 03:19:00;;;;;;;0.93;0.60;;;7.80;1.00;;;;;;5027909;28;20382;-73
2021/05/07 03:21:26;;;;;;;0.60;0.60;;;7.80;1.00;;;;;;5032558;28;20438;-73
2021/05/07 03:23:52;;;;;;;0.57;0.57;;;7.80;1.00;;;;;;5029742;28;20060;-74
2021/05/07 03:26:18;;;;;;;1.95;0.70;;;7.80;1.00;;;;;;5026395;28;20034;-73
2021/05/07 03:28:43;;;;;;;0.70;0.70;;;7.80;1.00;;;;;;5033133;28;20017;-74
2021/05/07 03:31:10;;;;;;;0.65;0.60;;;7.80;1.00;;;;;;5019978;28;20026;-75
2021/05/07 03:33:36;;;;;;;0.85;0.85;;;7.80;1.00;;;;;;5031536;28;20030;-75
2021/05/07 03:36:03;;;;;;;0.85;0.85;;;7.70;1.00;;;;;;5028064;28;20025;-74
2021/05/07 03:38:28;;;;;;;5.03;0.80;;;7.70;1.00;;;;;;5032779;28;20056;-73
2021/05/07 03:40:54;;;;;;;3.67;1.10;;;7.60;1.00;;;;;;5028878;28;20481;-73
2021/05/07 03:43:20;;;;;;;0.95;0.88;;;7.60;1.00;;;;;;5036610;28;20030;-74
2021/05/07 03:45:45;;;;;;;4.28;0.85;;;7.60;1.00;;;;;;5028418;28;20393;-74
2021/05/07 03:48:18;;;;;;;1.30;1.20;;;7.60;1.00;;;;;;5035504;28;20032;-74
2021/05/07 03:50:44;;;;;;;1.27;1.17;;;7.60;1.00;;;;;;5023669;28;20029;-74
2021/05/07 03:53:11;;;;;;;3.30;3.00;;;7.50;1.00;;;;;;5017148;28;20022;-73
2021/05/07 03:55:38;;;;;;;1.40;1.30;;;7.50;1.00;;;;;;5031655;28;20021;-73
2021/05/07 03:58:03;;;;;;;2.22;1.23;;;7.60;1.00;;;;;;5035636;28;20453;-73
2021/05/07 04:00:29;;;;;;;1.75;1.65;;;7.40;1.00;;;;;;5036022;28;20034;-73
2021/05/07 04:02:54;;;;;;;2.78;1.52;;;7.40;1.00;;;;;;5033778;28;20120;-74
2021/05/07 04:05:20;;;;;;;1.42;1.33;;;7.40;1.00;;;;;;5027677;28;20026;-73
2021/05/07 04:07:49;;;;;;;1.50;1.40;;;7.40;1.00;;;;;;5035119;28;20212;-73
2021/05/07 04:10:19;;;;;;;1.48;1.20;;;7.40;1.00;;;;;;5032785;28;20140;-73
2021/05/07 04:15:14;;;;;;;2.28;1.95;;;7.20;1.00;;;;;;5016177;28;20026;-73
2021/05/07 04:17:40;;;;;;;2.10;1.40;;;7.20;1.00;;;;;;5023394;28;20086;-74
2021/05/07 04:20:07;;;;;;;1.65;1.55;;;7.20;1.00;;;;;;5045443;28;20033;-74
2021/05/07 04:22:33;;;;;;;1.67;1.58;;;7.20;1.00;;;;;;5035692;28;20312;-73
2021/05/07 04:24:59;;;;;;;2.47;1.60;;;7.30;1.00;;;;;;5036858;28;20473;-74
2021/05/07 04:27:24;;;;;;;1.92;1.70;;;7.20;1.00;;;;;;5034783;28;20025;-74
2021/05/07 04:29:51;;;;;;;1.45;1.35;;;7.30;1.00;;;;;;5032411;28;20014;-74
2021/05/07 04:32:17;;;;;;;5.65;3.90;;;7.30;1.00;;;;;;5029140;28;20485;-74
2021/05/07 04:34:42;;;;;;;2.97;2.00;;;7.30;1.00;;;;;;5035392;28;20040;-72
2021/05/07 04:37:08;;;;;;;2.00;1.80;;;7.30;1.00;;;;;;5036786;28;20037;-73
2021/05/07 04:39:33;;;;;;;2.60;2.05;;;7.30;1.00;;;;;;5027876;28;20026;-72
2021/05/07 04:41:59;;;;;;;2.10;2.00;;;7.30;1.00;;;;;;5016542;28;20022;-73
2021/05/07 04:44:25;;;;;;;1.80;1.70;;;7.30;1.00;;;;;;5032465;28;20029;-73
2021/05/07 04:46:52;;;;;;;2.50;2.25;;;7.30;1.00;;;;;;5031471;28;20030;-74
2021/05/07 04:49:18;;;;;;;2.38;2.00;;;7.30;1.00;;;;;;5035020;28;20079;-73
2021/05/07 04:51:43;;;;;;;1.95;1.80;;;7.20;1.00;;;;;;5033367;28;20018;-74
2021/05/07 04:54:09;;;;;;;1.85;1.75;;;7.30;1.00;;;;;;5028712;28;20030;-73
2021/05/07 04:56:35;;;;;;;2.75;2.30;;;7.30;1.00;;;;;;5026072;28;20541;-74
2021/05/07 04:59:00;;;;;;;1.83;1.73;;;7.30;1.00;;;;;;5023181;28;20033;-73
2021/05/07 05:01:26;;;;;;;2.38;2.05;;;7.30;1.00;;;;;;5036842;28;20085;-73
2021/05/07 05:03:51;;;;;;;1.67;1.58;;;7.40;1.00;;;;;;5027194;28;20030;-72
2021/05/07 05:06:17;;;;;;;2.08;1.90;;;7.30;1.00;;;;;;5033866;28;20212;-73
2021/05/07 05:08:42;;;;;;;1.60;1.45;;;7.30;1.00;;;;;;5023867;28;20079;-73
2021/05/07 05:11:08;;;;;;;1.42;1.33;;;7.20;1.00;;;;;;5020906;28;20045;-73
2021/05/07 05:13:33;;;;;;;1.60;1.50;;;7.20;1.00;;;;;;5026946;28;20067;-74
2021/05/07 05:15:59;;;;;;;3.65;1.85;;;7.30;1.00;;;;;;5026449;28;20562;-73
2021/05/07 05:18:33;;;;;;;2.03;1.40;;;7.20;1.00;;;;;;5032769;28;20025;-74
2021/05/07 05:21:03;;;;;;;4.65;1.48;;;7.10;1.00;;;;;;5028920;28;20076;-73
2021/05/07 05:23:30;;;;;;;1.83;1.43;;;7.10;1.00;;;;;;5030931;28;20436;-73
2021/05/07 05:25:56;;;;;;;1.75;1.65;;;7.10;1.00;;;;;;5023645;28;20095;-74
2021/05/07 05:28:22;;;;;;;1.50;1.40;;;7.10;1.00;;;;;;5039226;28;20033;-73
2021/05/07 05:30:49;;;;;;;2.03;1.67;;;7.00;1.00;;;;;;5036231;28;20029;-75
2021/05/07 05:33:14;;;;;;;3.13;2.30;;;7.00;1.00;;;;;;5034233;28;20097;-73
2021/05/07 05:35:41;;;;;;;2.42;1.50;;;7.10;1.00;;;;;;5032640;28;20064;-74
2021/05/07 05:38:07;;;;;;;2.30;2.00;;;7.10;1.00;;;;;;5018268;28;20029;-73
2021/05/07 05:40:32;;;;;;;2.38;1.77;;;7.30;1.00;;;;;;5019747;28;20402;-74
2021/05/07 05:42:58;;;;;;;2.13;1.60;;;7.20;1.00;;;;;;5033070;28;20020;-73
2021/05/07 05:45:25;;;;;;;2.28;1.90;;;7.30;1.00;;;;;;5026954;28;20033;-73
2021/05/07 05:48:04;;;;;;;3.40;2.00;;;7.30;1.00;;;;;;5029272;28;20032;-74
2021/05/07 05:50:30;;;;;;;4.78;2.65;;;7.20;1.00;;;;;;5033671;28;20170;-74
2021/05/07 05:52:56;;;;;;;3.05;2.42;;;7.20;1.00;;;;;;5040000;28;20021;-74
2021/05/07 05:55:21;;;;;;;2.30;2.10;;;7.20;1.00;;;;;;5034643;28;20095;-75
2021/05/07 05:57:48;;;;;;;3.20;2.33;;;7.30;1.00;;;;;;5032147;28;20041;-74
2021/05/07 06:00:14;;;;;;;3.30;2.17;;;7.30;1.00;;;;;;5037929;28;20025;-74
2021/05/07 06:02:40;;;;;;;2.92;1.90;;;7.40;1.00;;;;;;5033554;28;20056;-74
2021/05/07 06:05:10;;;;;;;3.58;2.38;;;7.50;1.00;;;;;;5032784;28;20033;-73
2021/05/07 06:07:36;;;;;;;4.85;2.85;;;7.50;1.00;;;;;;5035084;28;20414;-73
2021/05/07 06:10:03;;;;;;;3.65;2.80;;;7.60;1.00;;;;;;5032749;28;20412;-73
2021/05/07 06:12:28;;;;;;;2.78;2.47;;;7.70;1.00;;;;;;5030256;28;20029;-74
2021/05/07 06:14:54;;;;;;;2.85;2.58;;;7.80;1.00;;;;;;5026913;28;20021;-74
2021/05/07 06:17:19;;;;;;;3.38;2.90;;;7.80;1.00;;;;;;5032253;28;20034;-74
2021/05/07 06:19:45;;;;;;;4.68;2.70;;;7.90;1.00;;;;;;5025414;28;20021;-74
2021/05/07 06:22:11;;;;;;;5.68;4.05;;;8.00;1.00;;;;;;5026528;28;20021;-74
2021/05/07 06:24:36;;;;;;;3.95;3.20;;;8.00;1.00;;;;;;5036201;28;20036;-74
2021/05/07 06:27:02;;;;;;;5.30;2.97;;;8.00;1.00;;;;;;5034686;28;20481;-74
2021/05/07 06:29:27;;;;;;;4.28;3.30;;;8.10;1.00;;;;;;5037270;28;20490;-73
2021/05/07 06:31:53;;;;;;;2.80;2.60;;;7.80;1.00;;;;;;5035086;28;20022;-73
2021/05/07 06:34:19;;;;;;;5.45;3.85;;;7.80;1.00;;;;;;5028113;28;20036;-74
2021/05/07 06:36:44;;;;;;;6.45;4.00;;;7.60;1.00;;;;;;5037682;28;20029;-73
2021/05/07 06:39:10;;;;;;;6.15;3.50;;;7.60;1.00;;;;;;5027686;28;20021;-74
2021/05/07 06:41:35;;;;;;;6.45;4.38;;;7.80;1.00;;;;;;5032747;28;20021;-74
2021/05/07 06:44:01;;;;;;;4.15;3.75;;;7.80;1.00;;;;;;5037180;28;20033;-73
2021/05/07 06:46:26;;;;;;;5.47;4.18;;;7.80;1.00;;;;;;5038485;28;20029;-74
2021/05/07 06:48:52;;;;;;;5.80;3.92;;;7.70;1.00;;;;;;5025588;28;20021;-75
2021/05/07 06:51:17;;;;;;;6.25;4.97;;;7.70;1.00;;;;;;5026543;28;20029;-74
2021/05/07 06:53:43;;;;;;;7.43;4.97;;;7.80;1.00;;;;;;5025375;28;20021;-74
2021/05/07 06:56:10;;;;;;;4.68;3.97;;;7.70;1.00;;;;;;5013870;28;20029;-73
2021/05/07 06:58:36;;;;;;;5.75;3.92;;;7.60;1.00;;;;;;5013873;28;20053;-75
2021/05/07 07:01:02;;;;;;;4.50;3.83;;;7.60;1.00;;;;;;5031168;28;20029;-72
2021/05/07 07:03:28;;;;;;;4.53;4.13;;;7.60;1.00;;;;;;5033258;28;20362;-73
2021/05/07 07:05:54;;;;;;;5.32;4.28;;;7.80;1.00;;;;;;5030512;28;20105;-74
2021/05/07 07:08:20;;;;;;;5.10;4.10;;;7.70;1.00;;;;;;5025609;28;20053;-74
2021/05/07 07:10:45;;;;;;;8.05;5.20;;;7.80;1.00;;;;;;5025136;28;20029;-73
2021/05/07 07:13:11;;;;;;;4.82;4.43;;;7.80;1.00;;;;;;5032507;28;20022;-74
2021/05/07 07:15:36;;;;;;;5.28;4.88;;;7.90;1.00;;;;;;5037548;28;20040;-74
2021/05/07 07:18:03;;;;;;;7.47;4.43;;;7.80;1.00;;;;;;5037423;28;20052;-73
2021/05/07 07:20:30;;;;;;;5.35;4.55;;;7.60;1.00;;;;;;5039255;28;20055;-75
2021/05/07 07:22:59;;;;;;;5.38;4.72;;;7.60;1.00;;;;;;5039040;28;20021;-74
2021/05/07 07:25:25;;;;;;;4.97;4.47;;;7.60;1.00;;;;;;5036541;28;20045;-76
2021/05/07 07:27:50;;;;;;;6.30;5.65;;;7.70;1.00;;;;;;5047895;28;20038;-75
2021/05/07 07:30:16;;;;;;;5.95;5.20;;;7.60;1.00;;;;;;5046591;28;20017;-76
2021/05/07 07:32:42;;;;;;;5.82;5.25;;;7.60;1.00;;;;;;5044130;28;20135;-75
2021/05/07 07:35:09;;;;;;;5.95;5.15;;;7.70;1.00;;;;;;5024911;28;20054;-75
2021/05/07 07:37:35;;;;;;;4.85;4.45;;;7.70;1.00;;;;;;5038789;28;20030;-75
2021/05/07 07:40:01;;;;;;;5.90;5.38;;;7.80;1.00;;;;;;5042841;28;20036;-74
2021/05/07 07:42:27;;;;;;;6.78;6.00;;;7.70;1.00;;;;;;5042832;28;20029;-75
2021/05/07 07:44:52;;;;;;;8.90;5.63;;;7.60;1.00;;;;;;5042758;28;20079;-74
2021/05/07 07:47:18;;;;;;;7.43;5.80;;;7.60;1.00;;;;;;5025530;28;20038;-75
2021/05/07 07:49:43;;;;;;;6.70;5.43;;;7.60;1.00;;;;;;5025329;28;20018;-75
2021/05/07 07:52:09;;;;;;;8.60;5.63;;;7.70;1.00;;;;;;5047840;28;20021;-75
2021/05/07 07:54:35;;;;;;;7.32;5.68;;;7.70;1.00;;;;;;5055514;28;20044;-74
2021/05/07 07:57:00;;;;;;;6.70;5.97;;;7.80;1.00;;;;;;5053489;28;20034;-74
2021/05/07 07:59:26;;;;;;;6.18;4.75;;;7.80;1.00;;;;;;5040288;28;20025;-75
2021/05/07 08:01:51;;;;;;;5.82;5.25;;;7.90;1.00;;;;;;5040660;28;20017;-75
2021/05/07 08:04:17;;;;;;;5.88;4.90;;;8.00;1.00;;;;;;5040552;28;20049;-75
2021/05/07 08:06:45;;;;;;;6.45;5.72;;;8.10;99.90;;;;;;5053866;28;20034;-74
2021/05/07 08:09:10;;;;;;;5.15;4.63;;;8.40;1.00;;;;;;5060096;28;20033;-74
2021/05/07 08:11:36;;;;;;;5.45;4.95;;;8.60;99.90;;;;;;5060383;28;20045;-74
2021/05/07 08:14:01;;;;;;;4.78;4.28;;;8.90;99.90;;;;;;5060230;28;20017;-74
2021/05/07 08:16:29;;;;;;;6.35;4.97;;;9.10;99.90;;;;;;5060360;28;20021;-76
2021/05/07 08:18:55;;;;;;;5.50;4.97;;;9.10;99.90;;;;;;5059753;28;20044;-75
2021/05/07 08:21:24;;;;;;;6.47;5.55;;;9.50;99.90;;;;;;5059427;28;20081;-74
2021/05/07 08:24:02;;;;;;;5.25;4.20;;;9.60;99.90;;;;;;5059127;28;20018;-75
2021/05/07 08:26:27;;;;;;;6.38;4.45;;;10.00;99.90;;;;;;5058663;28;20033;-75
2021/05/07 08:28:53;;;;;;;5.05;4.43;;;10.30;99.90;;;;;;5045194;28;20037;-75
2021/05/07 08:31:18;;;;;;;5.40;4.78;;;10.40;99.90;;;;;;5059317;28;20025;-75
2021/05/07 08:33:44;;;;;;;4.40;4.00;;;10.90;99.90;;;;;;5055631;28;20009;-76
2021/05/07 08:36:09;;;;;;;4.53;3.80;;;10.80;99.90;;;;;;5055155;28;20034;-75
2021/05/07 08:38:35;;;;;;;4.47;3.80;;;11.30;99.90;;;;;;5059263;28;20010;-74
2021/05/07 08:41:03;;;;;;;3.67;3.22;;;11.00;99.90;;;;;;5059266;28;20038;-76
2021/05/07 08:43:28;;;;;;;4.70;3.60;;;10.50;99.90;;;;;;5059879;28;20025;-75
2021/05/07 08:45:54;;;;;;;4.20;3.80;;;10.80;99.90;;;;;;5059597;28;20030;-75
2021/05/07 08:48:20;;;;;;;3.67;3.38;;;10.70;99.90;;;;;;5058051;28;20014;-76
2021/05/07 08:50:50;;;;;;;4.32;3.50;;;10.70;99.90;;;;;;5058774;28;20013;-75
2021/05/07 08:53:17;;;;;;;3.58;3.20;;;10.60;99.90;;;;;;5059436;28;20014;-74
2021/05/07 08:55:44;;;;;;;3.88;3.42;;;10.50;99.90;;;;;;5056305;28;20068;-75
2021/05/07 08:58:09;;;;;;;4.38;3.33;;;10.50;99.90;;;;;;5046130;28;20036;-74
2021/05/07 09:00:35;;;;;;;4.03;3.70;;;10.10;99.90;;;;;;5048499;28;20473;-75
2021/05/07 09:03:05;;;;;;;3.95;3.55;;;9.80;99.90;;;;;;5038994;28;20029;-74
2021/05/07 09:05:35;;;;;;;3.92;3.53;;;10.00;94.70;;;;;;5029503;28;20036;-75
2021/05/07 09:08:01;;;;;;;3.80;3.20;;;9.90;14.40;;;;;;5037188;28;20032;-76
2021/05/07 09:10:31;;;;;;;3.85;3.45;;;9.60;66.00;;;;;;5035751;28;20029;-76
2021/05/07 09:12:57;;;;;;;3.53;3.22;;;9.60;41.20;;;;;;5031318;28;20030;-74
2021/05/07 09:15:22;;;;;;;4.47;4.07;;;9.80;69.70;;;;;;5034948;28;20092;-76
2021/05/07 09:17:48;;;;;;;4.93;3.65;;;10.10;1.00;;;;;;5034801;28;20068;-76
2021/05/07 09:20:14;;;;;;;3.30;2.97;;;10.40;1.00;;;;;;5038960;28;20104;-75
2021/05/07 09:22:41;;;;;;;3.83;3.20;;;10.60;99.90;;;;;;5041033;28;20029;-75
2021/05/07 09:25:11;;;;;;;3.00;2.80;;;10.70;1.00;;;;;;5041321;28;20033;-75
2021/05/07 09:27:37;;;;;;;3.28;2.97;;;10.80;99.90;;;;;;5042609;28;20117;-74
2021/05/07 09:30:06;;;;;;;4.28;2.95;;;10.80;99.90;;;;;;5041675;28;20490;-76
2021/05/07 09:32:34;;;;;;;3.17;2.88;;;10.80;99.90;;;;;;5039893;28;20026;-75
2021/05/07 09:35:12;;;;;;;3.70;3.40;;;10.70;99.90;;;;;;5057122;28;20028;-75
2021/05/07 09:37:40;;;;;;;8.77;3.38;;;10.90;99.90;;;;;;5059257;28;20014;-75
2021/05/07 09:40:19;;;;;;;5.18;2.60;;;11.00;1.00;;;;;;5056470;28;20016;-76
2021/05/07 09:42:46;;;;;;;5.40;2.95;;;10.90;99.90;;;;;;5057995;28;20568;-76
2021/05/07 09:45:22;;;;;;;5.60;2.95;;;11.10;99.90;;;;;;5056227;28;20006;-75
2021/05/07 09:47:49;;;;;;;4.03;3.20;;;10.90;99.90;;;;;;5037587;28;20041;-74
2021/05/07 09:50:16;;;;;;;4.03;2.65;;;11.10;99.90;;;;;;5057933;28;20022;-74
2021/05/07 09:52:42;;;;;;;3.72;3.15;;;11.50;1.00;;;;;;5058168;28;20021;-75
2021/05/07 09:55:08;;;;;;;3.00;2.80;;;11.30;1.00;;;;;;5057164;28;20081;-76
2021/05/07 09:57:38;;;;;;;4.65;3.00;;;11.20;1.00;;;;;;5057085;28;20404;-75
2021/05/07 10:00:05;;;;;;;4.13;3.13;;;10.90;99.90;;;;;;5057189;28;20016;-75
2021/05/07 10:02:31;;;;;;;8.27;3.10;;;10.80;14.60;;;;;;5042392;28;20102;-75
2021/05/07 10:04:58;;;;;;;2.83;2.50;;;10.90;99.90;;;;;;5057458;28;20014;-74
2021/05/07 10:07:23;;;;;;;3.40;2.80;;;10.90;99.90;;;;;;5056606;28;20026;-75
2021/05/07 10:09:49;;;;;;;3.05;2.75;;;10.80;99.90;;;;;;5052593;28;20054;-74
2021/05/07 10:12:17;;;;;;;3.15;2.85;;;10.50;1.00;;;;;;5048774;28;20022;-76
2021/05/07 10:14:46;;;;;;;3.22;2.47;;;10.50;18.40;;;;;;5051645;28;20045;-76
2021/05/07 10:17:12;;;;;;;3.63;2.85;;;10.50;99.90;;;;;;5052438;28;20030;-75
2021/05/07 10:19:44;;;;;;;3.08;2.70;;;10.80;99.90;;;;;;5047613;28;20025;-75
2021/05/07 10:22:11;;;;;;;5.43;3.17;;;11.30;99.90;;;;;;5034401;28;20017;-77
2021/05/07 10:24:38;;;;;;;3.90;2.80;;;11.70;1.00;;;;;;5045036;28;20041;-77
2021/05/07 10:27:20;;;;;;;2.50;2.30;;;11.70;99.90;;;;;;5049559;28;20013;-76
2021/05/07 10:29:56;;;;;;;;;;;12.50;99.90;;;;;;5042327;28;20010;-76
2021/05/07 10:32:31;;;;;;;3.40;2.28;;;13.10;99.90;;;;;;5033929;28;19913;-75
2021/05/07 10:34:58;;;;;;;2.97;2.70;;;12.60;17.90;;;;;;5038528;28;20028;-75
2021/05/07 10:37:39;;;;;;;3.15;2.47;;;11.70;1.00;;;;;;5036373;28;20025;-75
2021/05/07 10:40:06;;;;;;;3.97;2.65;;;11.40;77.90;;;;;;5034018;28;20076;-76
2021/05/07 10:42:32;;;;;;;3.42;2.65;;;10.90;99.90;;;;;;5031661;28;20514;-78
2021/05/07 10:44:58;;;;;;;3.53;2.53;;;10.70;99.90;;;;;;5031346;28;20030;-77
2021/05/07 10:47:34;;;;;;;4.10;2.83;;;10.60;1.00;;;;;;5034817;28;20021;-77
2021/05/07 10:50:11;;;;;;;3.15;2.60;;;11.00;91.50;;;;;;5035007;28;20032;-76
2021/05/07 10:52:39;;;;;;;3.92;3.05;;;11.50;1.00;;;;;;5035125;28;20124;-77
2021/05/07 10:55:07;;;;;;;2.88;2.65;;;11.40;99.90;;;;;;5035825;28;20075;-76
2021/05/07 10:57:36;;;;;;;3.70;3.10;;;11.50;99.90;;;;;;5036080;28;20036;-77
2021/05/07 11:00:15;;;;;;;5.32;2.75;;;11.70;99.90;;;;;;5033131;28;20029;-77
2021/05/07 11:02:54;;;;;;;3.45;2.97;;;12.10;99.90;;;;;;5029319;28;20053;-77
2021/05/07 11:05:43;;;;;;;2.78;2.55;;;12.10;1.00;;;;;;5036176;28;20089;-76
2021/05/07 11:08:08;;;;;;;2.92;2.65;;;11.80;1.00;;;;;;5024302;28;20562;-77
2021/05/07 11:10:34;;;;;;;3.00;2.70;;;11.90;1.00;;;;;;5028026;28;20089;-77
2021/05/07 11:12:59;;;;;;;4.28;2.67;;;12.30;1.00;;;;;;5034057;28;20497;-76
2021/05/07 11:15:25;;;;;;;5.93;2.28;;;12.80;1.00;;;;;;5032186;28;20037;-76
2021/05/07 11:18:25;;;;;;;2.53;2.22;;;12.80;1.00;;;;;;5024372;28;20441;-77
2021/05/07 11:20:51;;;;;;;2.22;2.03;;;12.30;1.00;;;;;;5033128;28;20029;-77
2021/05/07 11:23:17;;;;;;;3.10;2.40;;;12.00;1.00;;;;;;5035401;28;20017;-78
2021/05/07 11:25:42;;;;;;;3.72;2.55;;;11.70;1.00;;;;;;5026884;28;20486;-77
2021/05/07 11:28:19;;;;;;;2.65;2.45;;;11.90;1.00;;;;;;5035545;28;20017;-76
2021/05/07 11:30:56;;;;;;;2.88;2.08;;;11.80;99.90;;;;;;5035532;28;20025;-77
2021/05/07 11:33:23;;;;;;;5.22;2.63;;;12.00;99.90;;;;;;5033644;28;20018;-76
2021/05/07 11:36:13;;;;;;;3.08;2.45;;;12.30;1.00;;;;;;5025960;28;20395;-77
2021/05/07 11:38:40;;;;;;;5.28;2.30;;;12.70;99.90;;;;;;5035071;28;20041;-77
2021/05/07 11:41:25;;;;;;;2.75;1.92;;;12.70;99.90;;;;;;5034884;28;20066;-75
2021/05/07 11:43:52;;;;;;;3.10;2.40;;;12.60;99.90;;;;;;5037253;28;20381;-76
2021/05/07 11:46:18;;;;;;;3.80;2.28;;;13.20;99.90;;;;;;5034715;28;20485;-77
2021/05/07 11:48:51;;;;;;;2.58;2.22;;;13.60;99.90;;;;;;5027245;28;20040;-76
2021/05/07 11:51:18;;;;;;;2.88;2.15;;;13.90;99.90;;;;;;5032855;28;20544;-76
2021/05/07 11:53:44;;;;;;;3.88;2.00;;;13.80;99.90;;;;;;5033275;28;20021;-77
2021/05/07 11:56:24;;;;;;;4.43;2.40;;;13.90;99.90;;;;;;5033850;28;20028;-77
2021/05/07 11:58:51;;;;;;;8.25;2.53;;;13.70;99.90;;;;;;5034700;28;20041;-77
2021/05/07 12:01:19;;;;;;;3.90;2.40;;;14.00;99.90;;;;;;5035368;28;20560;-76
2021/05/07 12:03:47;;;;;;;5.57;2.63;;;13.90;99.90;;;;;;5025450;28;20028;-77
2021/05/07 12:06:20;;;;;;;3.90;2.20;;;14.10;99.90;;;;;;5036355;28;20021;-76
2021/05/07 12:08:47;;;;;;;3.08;2.08;;;14.40;99.90;;;;;;5033175;28;20049;-77
2021/05/07 12:11:15;;;;;;;2.70;2.00;;;14.00;99.90;;;;;;5035844;28;20029;-77
2021/05/07 12:13:41;;;;;;;8.32;3.60;;;14.60;99.90;;;;;;5028176;28;20086;-77
2021/05/07 12:16:07;;;;;;;2.25;2.03;;;14.70;99.90;;;;;;5034872;28;20562;-77
2021/05/07 12:18:36;;;;;;;5.10;2.10;;;15.20;99.90;;;;;;5030218;28;20064;-76
2021/05/07 12:21:02;;;;;;;5.10;1.80;;;14.30;99.90;;;;;;5035230;28;20041;-76
2021/05/07 12:23:46;;;;;;;1.60;1.50;;;13.90;99.90;;;;;;5036510;28;20045;-77
2021/05/07 12:26:13;;;;;;;2.30;1.50;;;13.50;99.90;;;;;;5036991;28;20504;-77
2021/05/07 12:28:40;;;;;;;2.20;2.00;;;13.20;99.90;;;;;;5038028;28;20037;-77
2021/05/07 12:31:07;;;;;;;2.47;1.73;;;12.70;99.90;;;;;;5026719;28;20079;-76
2021/05/07 12:33:35;;;;;;;5.40;1.98;;;12.40;99.90;;;;;;5038394;28;20026;-77
2021/05/07 12:36:03;;;;;;;3.08;1.90;;;12.40;99.90;;;;;;5037344;28;20404;-76
2021/05/07 12:38:37;;;;;;;2.75;2.13;;;12.10;99.90;;;;;;5035539;28;20064;-77
2021/05/07 12:41:07;;;;;;;2.45;2.10;;;11.80;99.90;;;;;;5036527;28;20041;-77
2021/05/07 12:43:36;;;;;;;3.72;2.10;;;11.80;99.90;;;;;;5037450;28;20029;-77
2021/05/07 12:46:03;;;;;;;2.38;1.90;;;11.70;99.90;;;;;;5035586;28;20037;-77
2021/05/07 12:48:29;;;;;;;2.22;1.98;;;12.10;99.90;;;;;;5041128;28;20247;-78
2021/05/07 12:50:55;;;;;;;3.22;2.22;;;12.20;99.90;;;;;;5042103;28;20030;-76
2021/05/07 12:53:23;;;;;;;2.17;1.90;;;12.40;99.90;;;;;;5046412;28;20029;-76
2021/05/07 12:55:50;;;;;;;2.15;1.92;;;12.40;99.90;;;;;;5034307;28;20470;-76
2021/05/07 12:58:16;;;;;;;3.78;1.77;;;12.60;99.90;;;;;;5034037;28;20539;-76
2021/05/07 13:00:42;;;;;;;2.05;1.95;;;12.70;99.90;;;;;;5038977;28;20018;-76
2021/05/07 13:03:09;;;;;;;3.03;2.20;;;12.80;99.90;;;;;;5039115;28;20052;-79